Clinton, Washington
Current Conditions -  °F | °C
As of 4:43 AM on Sunday 21 Dec 2014 (Local Time) from KPAE Reporting Station
Light Rain Light Rain  
Wind Chill:   Ceiling: 2200
Heat Index:   Visibility: 10mi
Dew Point:   Wind: 0mph
Humidity: 80%   Direction: NA
Pressure: 29.75"   Gusts: NA
Location:  47.98°N, 122.36°W
Report Text: KPAE 211243Z AUTO 00000KT 10SM -RA BKN022 OVC032 09/06 A2975 RMK AO2 RAB25 P0000 T00940061
Loading
Personal Weather Stations






























Interactive Weather Map New forecast layout! Learn more

10-Day Weather Forecast

Advertisements
Track Severe Weather on mobile